Time;durP1;ratioP1;P1;durP2;ratioP2;P2;SDS_P1;SDS_P2;PMS_P1;PMS_P2;Temp;Humidity;BMP_temperature;BMP_pressure;BME280_temperature;BME280_humidity;BME280_pressure;Samples;Min_cycle;Max_cycle;Signal;HPM_P1;HPM_P2
2022/05/10 00:01:31;;;;;;;8.37;3.40;;;16.60;75.90;;;;;;5051032;28;20493;-64
2022/05/10 00:04:01;;;;;;;6.50;3.17;;;16.60;76.50;;;;;;5051480;28;20457;-64
2022/05/10 00:06:37;;;;;;;5.50;3.10;;;16.50;77.00;;;;;;5051315;28;20453;-65
2022/05/10 00:09:05;;;;;;;6.70;3.40;;;16.50;77.80;;;;;;5051485;28;20446;-61
2022/05/10 00:11:32;;;;;;;5.10;3.13;;;16.50;77.60;;;;;;5051678;28;20549;-63
2022/05/10 00:13:59;;;;;;;5.50;2.53;;;16.40;77.10;;;;;;5049830;28;20446;-63
2022/05/10 00:16:27;;;;;;;6.30;2.73;;;16.30;76.20;;;;;;5031567;28;20447;-62
2022/05/10 00:18:54;;;;;;;5.27;3.10;;;16.00;77.60;;;;;;5031645;28;20504;-64
2022/05/10 00:21:24;;;;;;;9.07;2.67;;;16.00;78.00;;;;;;5031534;28;20494;-64
2022/05/10 00:23:53;;;;;;;5.50;2.70;;;16.00;78.80;;;;;;5031166;28;20837;-61
2022/05/10 00:26:20;;;;;;;5.80;2.50;;;16.00;79.00;;;;;;5031309;28;20978;-62
2022/05/10 00:28:47;;;;;;;5.80;2.33;;;16.00;79.40;;;;;;5031413;28;20450;-63
2022/05/10 00:31:16;;;;;;;5.63;2.27;;;15.90;78.80;;;;;;5031435;28;20474;-62
2022/05/10 00:33:43;;;;;;;9.37;2.80;;;16.00;79.00;;;;;;5031449;28;20533;-64
2022/05/10 00:36:12;;;;;;;6.57;2.40;;;16.00;77.50;;;;;;5031151;28;20544;-63
2022/05/10 00:38:41;;;;;;;5.00;2.50;;;16.00;77.60;;;;;;5030975;28;20477;-64
2022/05/10 00:41:17;;;;;;;5.50;2.30;;;15.90;78.30;;;;;;5030501;28;20506;-63
2022/05/10 00:43:47;;;;;;;4.40;2.30;;;15.90;78.10;;;;;;5031219;28;20939;-63
2022/05/10 00:46:18;;;;;;;5.37;2.03;;;16.00;78.00;;;;;;5030974;28;20455;-64
2022/05/10 00:48:49;;;;;;;5.80;2.83;;;15.90;78.30;;;;;;5030817;28;20449;-64
2022/05/10 00:51:21;;;;;;;4.00;1.80;;;15.90;77.70;;;;;;5030491;28;20496;-64
2022/05/10 00:53:59;;;;;;;6.93;2.67;;;15.90;77.50;;;;;;5030981;28;20801;-63
2022/05/10 00:56:35;;;;;;;7.13;2.57;;;15.90;78.00;;;;;;5030862;28;20458;-64
2022/05/10 00:59:10;;;;;;;4.70;1.90;;;16.00;77.90;;;;;;5030446;28;20798;-63
2022/05/10 01:01:39;;;;;;;13.20;3.50;;;16.00;78.30;;;;;;5030215;28;20490;-61
2022/05/10 01:04:20;;;;;;;4.90;2.70;;;16.00;78.60;;;;;;5030512;28;20455;-62
2022/05/10 01:06:52;;;;;;;5.17;2.80;;;16.00;78.60;;;;;;5030766;28;20474;-64
2022/05/10 01:09:31;;;;;;;4.53;2.27;;;16.00;78.80;;;;;;5030036;28;20959;-64
2022/05/10 01:12:03;;;;;;;8.30;2.30;;;16.00;79.70;;;;;;5030454;28;20485;-63
2022/05/10 01:14:36;;;;;;;5.70;2.40;;;16.00;80.80;;;;;;5030177;28;20451;-65
2022/05/10 01:17:04;;;;;;;6.20;2.50;;;15.80;82.10;;;;;;5030575;28;20862;-63
2022/05/10 01:19:31;;;;;;;6.13;2.87;;;15.80;82.20;;;;;;5030435;28;20462;-63
2022/05/10 01:22:16;;;;;;;4.87;2.33;;;15.80;82.40;;;;;;5030179;28;20490;-62
2022/05/10 01:25:03;;;;;;;4.80;2.30;;;15.70;83.10;;;;;;5036765;28;20504;-63
2022/05/10 01:27:50;;;;;;;5.67;2.40;;;15.70;83.30;;;;;;5050258;28;20454;-61
2022/05/10 01:30:22;;;;;;;5.60;2.77;;;15.60;83.50;;;;;;5049751;28;20457;-65
2022/05/10 01:35:46;;;;;;;4.40;1.97;;;15.50;82.60;;;;;;5050064;28;20817;-64
2022/05/10 01:38:26;;;;;;;5.13;2.67;;;15.30;83.80;;;;;;5049805;28;20449;-65
2022/05/10 01:41:00;;;;;;;5.27;2.23;;;15.30;83.80;;;;;;5049074;28;20489;-62
2022/05/10 01:43:36;;;;;;;4.57;2.47;;;15.30;84.90;;;;;;5049494;28;20541;-64
2022/05/10 01:46:12;;;;;;;5.03;2.10;;;15.30;85.30;;;;;;5049362;28;20814;-62
2022/05/10 01:48:41;;;;;;;5.50;2.07;;;15.30;85.70;;;;;;5049852;28;20481;-65
2022/05/10 01:51:13;;;;;;;3.97;1.90;;;15.20;86.10;;;;;;5049622;28;20542;-64
2022/05/10 01:53:42;;;;;;;4.23;2.50;;;15.30;86.40;;;;;;5049483;28;20810;-62
2022/05/10 01:56:13;;;;;;;6.07;1.80;;;15.20;86.50;;;;;;5049616;28;20818;-63
2022/05/10 01:58:41;;;;;;;4.70;2.23;;;15.20;86.50;;;;;;5049964;28;21113;-63
2022/05/10 02:01:12;;;;;;;8.40;2.53;;;15.30;86.00;;;;;;5048648;28;20494;-63
2022/05/10 02:03:43;;;;;;;9.00;2.20;;;15.20;86.40;;;;;;5049582;28;20453;-61
2022/05/10 02:06:17;;;;;;;4.87;3.07;;;15.20;86.70;;;;;;5049213;28;20548;-61
2022/05/10 02:08:50;;;;;;;6.43;2.40;;;15.20;86.60;;;;;;5049393;28;20465;-61
2022/05/10 02:11:18;;;;;;;4.43;2.40;;;15.10;87.10;;;;;;5049577;28;20473;-62
2022/05/10 02:13:51;;;;;;;5.80;2.20;;;15.00;87.80;;;;;;5049547;28;20457;-62
2022/05/10 02:16:25;;;;;;;4.63;2.23;;;14.90;88.30;;;;;;5049028;28;20464;-63
2022/05/10 02:18:59;;;;;;;6.53;2.70;;;14.80;89.20;;;;;;5049334;28;20449;-64
2022/05/10 02:21:31;;;;;;;6.30;2.50;;;14.90;90.20;;;;;;5049164;28;20933;-61
2022/05/10 02:24:02;;;;;;;4.57;2.47;;;14.90;90.80;;;;;;5048956;28;20457;-63
2022/05/10 02:26:32;;;;;;;5.50;2.50;;;14.80;91.40;;;;;;5049141;28;20477;-64
2022/05/10 02:29:07;;;;;;;4.33;2.57;;;14.70;92.10;;;;;;5049001;28;21004;-64
2022/05/10 02:34:23;;;;;;;7.53;3.03;;;14.70;93.20;;;;;;5048520;28;20434;-64
2022/05/10 02:36:50;;;;;;;9.10;2.90;;;14.80;93.90;;;;;;5049361;28;20456;-63
2022/05/10 02:39:17;;;;;;;5.23;3.00;;;14.80;94.90;;;;;;5048826;28;20458;-62
2022/05/10 02:41:45;;;;;;;4.93;2.63;;;14.80;95.20;;;;;;5048401;28;20506;-64
2022/05/10 02:44:12;;;;;;;5.70;2.30;;;14.80;95.80;;;;;;5049077;28;20450;-63
2022/05/10 02:46:41;;;;;;;5.80;2.83;;;14.70;96.70;;;;;;5049097;28;20810;-63
2022/05/10 02:49:08;;;;;;;5.07;2.80;;;14.70;96.80;;;;;;5049266;28;20449;-65
2022/05/10 02:51:35;;;;;;;6.00;2.60;;;14.70;97.00;;;;;;5048792;28;20473;-63
2022/05/10 02:54:02;;;;;;;5.20;2.63;;;14.70;97.60;;;;;;5048953;28;20453;-64
2022/05/10 02:56:31;;;;;;;5.97;3.20;;;14.80;97.90;;;;;;5048888;28;20457;-62
2022/05/10 02:59:03;;;;;;;5.30;3.43;;;14.80;98.30;;;;;;5049046;28;20454;-62
2022/05/10 03:01:34;;;;;;;4.73;3.00;;;14.80;98.20;;;;;;5048850;28;20849;-64
2022/05/10 03:04:05;;;;;;;5.90;2.80;;;14.80;98.20;;;;;;5048498;28;20874;-65
2022/05/10 03:06:33;;;;;;;7.27;3.33;;;14.80;98.60;;;;;;5048598;28;20519;-65
2022/05/10 03:09:00;;;;;;;5.20;3.17;;;14.90;99.60;;;;;;5049332;28;20472;-66
2022/05/10 03:11:28;;;;;;;5.90;2.80;;;14.80;99.90;;;;;;5050705;28;20828;-65
2022/05/10 03:13:56;;;;;;;8.03;3.57;;;14.70;99.90;;;;;;5052599;28;20465;-63
2022/05/10 03:16:24;;;;;;;10.30;6.47;;;14.50;99.90;;;;;;5052014;28;20457;-65
2022/05/10 03:18:52;;;;;;;6.87;4.33;;;14.20;99.90;;;;;;5052136;28;20454;-62
2022/05/10 03:21:22;;;;;;;6.67;3.50;;;13.80;99.90;;;;;;5052103;28;20489;-64
2022/05/10 03:23:49;;;;;;;7.10;4.67;;;13.30;99.90;;;;;;5052474;28;20461;-64
2022/05/10 03:26:19;;;;;;;5.87;3.37;;;13.00;99.90;;;;;;5052102;28;20457;-64
2022/05/10 03:28:46;;;;;;;7.00;4.40;;;13.00;99.90;;;;;;5052076;28;20453;-64
2022/05/10 03:31:17;;;;;;;6.80;3.83;;;13.20;99.90;;;;;;5052210;28;20527;-64
2022/05/10 03:33:45;;;;;;;5.83;3.67;;;13.40;99.90;;;;;;5052227;28;20457;-64
2022/05/10 03:36:12;;;;;;;6.20;3.93;;;13.60;99.90;;;;;;5052187;28;20445;-62
2022/05/10 03:38:40;;;;;;;10.17;4.27;;;13.90;99.90;;;;;;5052274;28;20472;-65
2022/05/10 03:41:07;;;;;;;7.83;4.70;;;14.10;99.90;;;;;;5051629;28;20497;-63
2022/05/10 03:43:34;;;;;;;8.30;4.63;;;14.20;99.90;;;;;;5052098;28;20496;-65
2022/05/10 03:46:06;;;;;;;7.23;4.53;;;14.20;99.90;;;;;;5051988;28;20450;-62
2022/05/10 03:48:33;;;;;;;7.20;4.33;;;14.30;99.90;;;;;;5051797;28;20485;-62
2022/05/10 03:51:00;;;;;;;7.03;3.73;;;14.40;99.90;;;;;;5051595;28;20473;-64
2022/05/10 03:53:28;;;;;;;6.93;4.30;;;14.50;99.90;;;;;;5051913;28;20957;-63
2022/05/10 03:55:56;;;;;;;9.87;4.43;;;14.60;99.90;;;;;;5051887;28;20514;-65
2022/05/10 03:58:23;;;;;;;11.30;4.70;;;14.70;99.90;;;;;;5051448;28;20446;-64
2022/05/10 04:00:50;;;;;;;6.80;3.97;;;14.60;99.90;;;;;;5051712;28;20489;-64
2022/05/10 04:03:17;;;;;;;8.27;4.10;;;14.40;99.90;;;;;;5051498;28;20515;-63
2022/05/10 04:05:44;;;;;;;8.20;4.63;;;14.60;99.90;;;;;;5051706;28;20450;-63
2022/05/10 04:08:11;;;;;;;7.47;4.10;;;14.60;99.90;;;;;;5051401;28;20442;-63
2022/05/10 04:10:38;;;;;;;9.10;4.07;;;14.70;99.90;;;;;;5051443;28;20844;-64
2022/05/10 04:13:07;;;;;;;6.77;4.30;;;14.80;99.90;;;;;;5051642;28;20520;-63
2022/05/10 04:15:34;;;;;;;6.27;3.80;;;14.80;99.90;;;;;;5051518;28;20551;-64
2022/05/10 04:18:01;;;;;;;9.20;5.30;;;14.80;99.90;;;;;;5051439;28;20461;-63
2022/05/10 04:20:28;;;;;;;7.50;4.00;;;14.70;99.90;;;;;;5051167;28;20449;-64
2022/05/10 04:22:56;;;;;;;12.77;4.53;;;14.70;99.90;;;;;;5050624;28;20516;-63
2022/05/10 04:25:25;;;;;;;11.53;5.07;;;14.70;99.90;;;;;;5051129;28;20486;-65
2022/05/10 04:27:52;;;;;;;10.33;4.90;;;14.80;99.90;;;;;;5051237;28;20485;-63
2022/05/10 04:30:22;;;;;;;8.50;5.07;;;14.90;99.90;;;;;;5051001;28;20508;-65
2022/05/10 04:32:49;;;;;;;10.10;4.77;;;14.90;99.90;;;;;;5051426;28;20472;-64
2022/05/10 04:35:16;;;;;;;11.03;4.97;;;15.00;99.90;;;;;;5051148;28;20591;-62
2022/05/10 04:37:43;;;;;;;9.57;4.50;;;15.20;99.90;;;;;;5051115;28;20977;-63
2022/05/10 04:42:55;;;;;;;12.40;5.07;;;15.20;99.90;;;;;;5050670;28;20551;-63
2022/05/10 04:45:24;;;;;;;8.80;4.73;;;15.40;99.90;;;;;;5050859;28;20467;-63
2022/05/10 04:47:51;;;;;;;7.20;4.67;;;15.40;99.90;;;;;;5050947;28;20453;-65
2022/05/10 04:50:19;;;;;;;9.20;4.10;;;15.50;99.90;;;;;;5050479;28;20967;-64
2022/05/10 04:52:46;;;;;;;6.47;4.53;;;15.50;99.90;;;;;;5051045;28;20923;-63
2022/05/10 04:55:13;;;;;;;9.33;4.80;;;15.50;99.90;;;;;;5050763;28;20805;-64
2022/05/10 04:57:41;;;;;;;8.13;3.73;;;15.60;99.90;;;;;;5050458;28;20454;-63
2022/05/10 05:00:12;;;;;;;7.03;4.43;;;15.70;99.90;;;;;;5050587;28;20873;-63
2022/05/10 05:02:40;;;;;;;8.93;5.23;;;15.60;99.90;;;;;;5050485;28;20490;-63
2022/05/10 05:05:08;;;;;;;11.13;4.80;;;15.70;99.90;;;;;;5050025;28;20931;-63
2022/05/10 05:07:35;;;;;;;10.33;4.73;;;15.80;99.90;;;;;;5050390;28;20927;-64
2022/05/10 05:10:03;;;;;;;6.50;4.47;;;15.80;99.90;;;;;;5050295;28;20460;-66
2022/05/10 05:12:32;;;;;;;9.60;6.67;;;15.80;99.90;;;;;;5050208;28;20539;-65
2022/05/10 05:14:59;;;;;;;6.57;4.73;;;15.90;99.90;;;;;;5049708;28;20528;-63
2022/05/10 05:17:26;;;;;;;7.53;4.97;;;15.90;99.90;;;;;;5049902;28;20458;-69
2022/05/10 05:19:55;;;;;;;9.83;4.80;;;16.00;99.90;;;;;;5049919;28;20958;-68
2022/05/10 05:22:22;;;;;;;7.97;4.70;;;16.00;99.80;;;;;;5050212;28;20493;-67
2022/05/10 05:24:49;;;;;;;8.20;4.40;;;16.10;99.90;;;;;;5049718;28;20458;-65
2022/05/10 05:27:16;;;;;;;11.00;4.93;;;16.20;99.60;;;;;;5050091;28;20465;-69
2022/05/10 05:29:43;;;;;;;7.40;4.73;;;16.40;99.30;;;;;;5050133;28;20465;-67
2022/05/10 05:32:12;;;;;;;11.47;4.37;;;16.50;99.20;;;;;;5049534;28;20474;-69
2022/05/10 05:34:39;;;;;;;10.23;5.03;;;16.60;98.20;;;;;;5048427;28;20454;-69
2022/05/10 05:39:52;;;;;;;6.37;4.10;;;16.70;97.90;;;;;;5049465;28;20456;-68
2022/05/10 05:42:19;;;;;;;10.33;4.30;;;16.70;97.10;;;;;;5048873;28;20498;-68
2022/05/10 05:44:46;;;;;;;6.43;3.67;;;16.60;97.60;;;;;;5049745;28;20804;-71
2022/05/10 05:47:13;;;;;;;8.23;3.90;;;16.70;97.60;;;;;;5049685;28;20677;-67
2022/05/10 05:49:40;;;;;;;7.73;5.30;;;16.80;98.00;;;;;;5049427;28;20539;-69
2022/05/10 05:52:09;;;;;;;10.40;4.93;;;17.10;97.60;;;;;;5049470;28;20485;-68
2022/05/10 05:54:36;;;;;;;8.37;4.70;;;17.00;96.90;;;;;;5049283;28;20461;-69
2022/05/10 05:57:06;;;;;;;9.10;4.63;;;17.00;97.00;;;;;;5048988;28;20449;-66
2022/05/10 05:59:33;;;;;;;11.40;4.90;;;17.30;97.10;;;;;;5049404;28;20454;-68
2022/05/10 06:02:01;;;;;;;6.70;4.10;;;17.70;96.70;;;;;;5049411;28;20477;-70
2022/05/10 06:04:28;;;;;;;7.20;4.20;;;17.90;95.30;;;;;;5049406;28;20464;-68
2022/05/10 06:06:55;;;;;;;5.90;4.00;;;18.10;94.20;;;;;;5049590;28;20840;-67
2022/05/10 06:09:23;;;;;;;10.07;3.73;;;18.30;93.60;;;;;;5049357;28;20461;-69
2022/05/10 06:11:51;;;;;;;7.30;4.13;;;18.30;93.70;;;;;;5048736;28;20474;-68
2022/05/10 06:14:18;;;;;;;7.17;3.70;;;18.60;94.20;;;;;;5049312;28;20465;-65
2022/05/10 06:16:45;;;;;;;11.20;4.40;;;18.50;92.90;;;;;;5049208;28;20454;-68
2022/05/10 06:19:13;;;;;;;9.27;4.27;;;18.70;92.20;;;;;;5049155;28;20461;-68
2022/05/10 06:21:41;;;;;;;7.93;3.70;;;18.80;92.00;;;;;;5049206;28;20469;-67
2022/05/10 06:24:10;;;;;;;7.37;4.03;;;19.00;91.40;;;;;;5049035;28;20674;-67
2022/05/10 06:26:38;;;;;;;9.23;4.50;;;19.10;91.30;;;;;;5049036;28;20489;-69
2022/05/10 06:29:05;;;;;;;8.73;4.87;;;19.20;90.40;;;;;;5048906;28;20462;-72
2022/05/10 06:31:32;;;;;;;8.90;3.60;;;19.50;89.70;;;;;;5049088;28;20474;-72
2022/05/10 06:34:00;;;;;;;10.13;4.13;;;19.70;88.60;;;;;;5049160;28;20505;-71
2022/05/10 06:36:27;;;;;;;6.03;3.73;;;19.90;87.30;;;;;;5049248;28;20457;-63
2022/05/10 06:38:54;;;;;;;12.03;4.47;;;19.90;85.60;;;;;;5049190;28;20449;-66
2022/05/10 06:41:21;;;;;;;10.50;3.87;;;20.00;85.00;;;;;;5048564;28;21029;-67
2022/05/10 06:43:49;;;;;;;8.40;4.30;;;20.20;84.40;;;;;;5049128;28;20516;-68
2022/05/10 06:46:20;;;;;;;7.67;4.20;;;20.30;81.80;;;;;;5050827;28;20922;-68
2022/05/10 06:48:48;;;;;;;9.17;3.67;;;20.20;80.30;;;;;;5053126;28;20930;-68
2022/05/10 06:51:18;;;;;;;8.73;4.00;;;20.20;79.70;;;;;;5056316;28;20503;-67
2022/05/10 06:53:45;;;;;;;9.07;4.13;;;20.30;80.40;;;;;;5060334;28;20858;-66
2022/05/10 06:56:13;;;;;;;7.40;3.73;;;20.50;81.30;;;;;;5053738;28;20454;-67
2022/05/10 06:58:40;;;;;;;14.37;5.03;;;20.60;80.90;;;;;;5052454;28;20490;-67
2022/05/10 07:01:11;;;;;;;9.33;4.00;;;20.60;79.40;;;;;;5052956;28;20470;-68
2022/05/10 07:03:41;;;;;;;7.43;3.30;;;20.80;79.00;;;;;;5052544;28;20508;-68
2022/05/10 07:06:10;;;;;;;7.10;4.57;;;20.80;76.50;;;;;;5052748;28;20864;-68
2022/05/10 07:08:38;;;;;;;10.00;4.70;;;20.70;76.70;;;;;;5052795;28;20802;-68
2022/05/10 07:11:05;;;;;;;8.50;3.87;;;20.90;77.30;;;;;;5052696;28;20933;-68
2022/05/10 07:13:34;;;;;;;11.07;4.37;;;21.10;77.30;;;;;;5052620;28;20930;-67
2022/05/10 07:16:02;;;;;;;6.73;3.60;;;21.40;77.30;;;;;;5052529;28;20456;-68
2022/05/10 07:18:30;;;;;;;11.70;4.37;;;21.50;76.50;;;;;;5051936;28;20933;-68
2022/05/10 07:20:58;;;;;;;7.50;3.53;;;21.60;76.50;;;;;;5051946;28;20481;-68
2022/05/10 07:23:29;;;;;;;9.17;3.80;;;21.80;75.70;;;;;;5052095;28;20485;-68
2022/05/10 07:25:56;;;;;;;7.20;3.50;;;22.10;75.10;;;;;;5052065;28;20503;-67
2022/05/10 07:28:24;;;;;;;9.23;3.50;;;22.40;72.90;;;;;;5052516;28;20450;-68
2022/05/10 07:30:51;;;;;;;8.37;3.40;;;22.60;72.60;;;;;;5052595;28;21026;-68
2022/05/10 07:33:19;;;;;;;6.03;3.30;;;22.70;71.80;;;;;;5052028;28;20445;-68
2022/05/10 07:38:32;;;;;;;7.70;3.77;;;22.80;69.70;;;;;;5052098;28;20576;-67
2022/05/10 07:40:59;;;;;;;10.70;3.97;;;23.00;68.40;;;;;;5051372;28;20581;-67
2022/05/10 07:43:27;;;;;;;7.17;3.80;;;23.20;67.60;;;;;;5051827;28;20492;-68
2022/05/10 07:45:55;;;;;;;6.90;3.37;;;23.40;67.00;;;;;;5051653;28;20450;-69
2022/05/10 07:48:22;;;;;;;9.73;4.77;;;23.50;65.50;;;;;;5051849;28;20449;-71
2022/05/10 07:50:51;;;;;;;15.40;5.00;;;23.50;65.20;;;;;;5051662;28;20967;-68
2022/05/10 07:53:18;;;;;;;6.87;4.10;;;23.30;65.90;;;;;;5051446;28;20539;-70
2022/05/10 07:55:46;;;;;;;10.10;3.73;;;23.30;66.50;;;;;;5051640;28;20795;-77
2022/05/10 07:58:13;;;;;;;8.90;3.80;;;23.50;66.60;;;;;;5050590;28;20473;-76
2022/05/10 08:00:43;;;;;;;10.00;3.67;;;23.70;63.90;;;;;;5051333;28;20978;-77
2022/05/10 08:03:11;;;;;;;7.03;3.57;;;23.80;63.00;;;;;;5051319;28;21045;-77
2022/05/10 08:05:40;;;;;;;6.97;3.00;;;23.90;62.20;;;;;;5051636;28;20480;-72
2022/05/10 08:08:11;;;;;;;9.50;4.50;;;24.20;61.50;;;;;;5051662;28;20515;-70
2022/05/10 08:10:39;;;;;;;6.20;2.30;;;24.40;58.00;;;;;;5050981;28;20976;-70
2022/05/10 08:13:11;;;;;;;5.23;2.40;;;24.60;56.10;;;;;;5051200;28;20625;-69
2022/05/10 08:15:39;;;;;;;14.80;3.10;;;24.60;55.70;;;;;;5051222;28;20859;-70
2022/05/10 08:18:06;;;;;;;5.43;2.77;;;24.60;56.20;;;;;;5034098;28;20474;-73
2022/05/10 08:20:33;;;;;;;10.43;2.93;;;24.60;55.80;;;;;;5031438;28;20462;-72
2022/05/10 08:23:01;;;;;;;4.10;2.00;;;24.80;56.40;;;;;;5031022;28;20502;-73
2022/05/10 08:25:29;;;;;;;7.63;2.37;;;25.00;53.20;;;;;;5043658;28;20458;-70
2022/05/10 08:27:57;;;;;;;5.17;1.87;;;25.10;50.80;;;;;;5050862;28;20884;-72
2022/05/10 08:30:24;;;;;;;4.53;2.10;;;24.80;46.70;;;;;;5051039;28;20872;-72
2022/05/10 08:32:51;;;;;;;7.30;2.77;;;24.60;47.30;;;;;;5050994;28;20453;-70
2022/05/10 08:35:18;;;;;;;4.97;2.33;;;24.80;48.80;;;;;;5050931;28;20457;-72
2022/05/10 08:37:45;;;;;;;9.73;3.70;;;25.10;49.90;;;;;;5033085;28;20463;-70
2022/05/10 08:40:23;;;;;;;6.37;3.23;;;25.30;49.50;;;;;;5050732;28;20461;-71
2022/05/10 08:42:55;;;;;;;4.87;2.40;;;25.50;48.70;;;;;;5049917;28;20481;-67
2022/05/10 08:45:25;;;;;;;4.80;2.20;;;25.40;47.30;;;;;;5050862;28;20446;-69
2022/05/10 08:47:52;;;;;;;5.03;1.90;;;25.50;48.30;;;;;;5050752;28;20543;-71
2022/05/10 08:50:19;;;;;;;6.37;2.33;;;25.40;46.20;;;;;;5050582;28;20525;-70
2022/05/10 08:52:51;;;;;;;4.40;2.03;;;25.30;46.30;;;;;;5050243;28;20461;-70
2022/05/10 08:55:22;;;;;;;4.20;1.90;;;25.30;46.50;;;;;;5050640;28;20453;-70
2022/05/10 08:57:52;;;;;;;5.73;2.07;;;25.20;46.70;;;;;;5050642;28;20450;-69
2022/05/10 09:00:28;;;;;;;5.53;2.40;;;25.40;47.70;;;;;;5050902;28;20453;-70
2022/05/10 09:02:58;;;;;;;6.47;3.90;;;25.70;49.00;;;;;;5050050;28;20885;-68
2022/05/10 09:05:31;;;;;;;4.27;2.37;;;26.00;48.80;;;;;;5050445;28;20449;-67
2022/05/10 09:08:03;;;;;;;6.37;3.17;;;26.10;48.30;;;;;;5050451;28;20486;-70
2022/05/10 09:10:37;;;;;;;6.57;2.00;;;26.10;47.60;;;;;;5049781;28;20536;-67
2022/05/10 09:13:10;;;;;;;4.33;1.90;;;25.80;47.10;;;;;;5050008;28;20453;-67
2022/05/10 09:15:39;;;;;;;4.83;2.50;;;25.90;47.40;;;;;;5050107;28;20458;-68
2022/05/10 09:18:08;;;;;;;4.67;2.10;;;26.00;49.10;;;;;;5050025;28;20511;-66
2022/05/10 09:20:40;;;;;;;5.47;2.70;;;26.20;48.90;;;;;;5050122;28;20809;-67
2022/05/10 09:23:28;;;;;;;4.20;2.50;;;26.50;49.60;;;;;;5049586;28;20453;-69
2022/05/10 09:25:57;;;;;;;6.13;2.53;;;26.70;48.10;;;;;;5049565;28;20508;-70
2022/05/10 09:28:31;;;;;;;4.40;2.70;;;26.80;48.20;;;;;;5050130;28;20540;-67
2022/05/10 09:36:56;;;;;;;6.90;2.30;;;27.20;47.40;;;;;;5049893;28;20825;-68
2022/05/10 09:39:34;;;;;;;5.03;2.07;;;26.90;46.10;;;;;;5049602;28;20457;-67
2022/05/10 09:42:02;;;;;;;5.43;2.13;;;26.60;47.10;;;;;;5049039;28;20494;-66
2022/05/10 09:44:30;;;;;;;9.37;3.50;;;26.60;47.60;;;;;;5049533;28;20857;-68
2022/05/10 09:47:12;;;;;;;4.70;2.30;;;26.60;47.10;;;;;;5049623;28;20454;-70
2022/05/10 09:49:41;;;;;;;4.97;2.50;;;26.60;46.60;;;;;;5049610;28;20482;-70
2022/05/10 09:52:19;;;;;;;9.70;2.50;;;26.80;48.50;;;;;;5049498;28;20940;-70
2022/05/10 09:54:47;;;;;;;5.80;2.60;;;27.10;49.00;;;;;;5049005;28;20453;-69
2022/05/10 09:57:28;;;;;;;5.60;2.47;;;27.30;48.30;;;;;;5049527;28;20453;-71
2022/05/10 09:59:57;;;;;;;5.93;2.67;;;27.40;47.50;;;;;;5049790;28;20457;-72
2022/05/10 10:02:33;;;;;;;5.57;2.63;;;27.30;46.90;;;;;;5049382;28;20497;-69
2022/05/10 10:05:17;;;;;;;6.43;2.77;;;27.10;46.30;;;;;;5048990;28;20499;-71
2022/05/10 10:07:50;;;;;;;5.97;2.70;;;26.90;46.00;;;;;;5049360;28;20456;-71
2022/05/10 10:10:23;;;;;;;8.57;2.77;;;26.90;47.40;;;;;;5049137;28;20454;-69
2022/05/10 10:12:50;;;;;;;5.10;2.60;;;27.20;48.70;;;;;;5049558;28;20445;-70
2022/05/10 10:15:24;;;;;;;6.33;2.60;;;27.20;46.20;;;;;;5049232;28;21014;-71
2022/05/10 10:17:55;;;;;;;5.00;2.97;;;27.30;47.30;;;;;;5048843;28;20492;-70
2022/05/10 10:20:32;;;;;;;4.63;2.70;;;27.60;47.00;;;;;;5048866;28;20866;-70
2022/05/10 10:23:03;;;;;;;7.97;3.00;;;27.60;45.40;;;;;;5049309;28;20915;-68
2022/05/10 10:25:36;;;;;;;6.20;2.57;;;27.70;46.00;;;;;;5048553;28;20500;-69
2022/05/10 10:28:08;;;;;;;4.60;2.20;;;27.90;44.40;;;;;;5049177;28;20449;-70
2022/05/10 10:30:47;;;;;;;5.57;2.60;;;27.90;44.70;;;;;;5048767;28;20485;-70
2022/05/10 10:33:24;;;;;;;6.80;2.20;;;28.10;44.80;;;;;;5048979;28;20953;-69
2022/05/10 10:35:56;;;;;;;4.80;2.77;;;28.20;44.50;;;;;;5049073;28;20454;-70
2022/05/10 10:38:28;;;;;;;5.00;2.70;;;28.40;45.30;;;;;;5048861;28;20465;-70
2022/05/10 10:41:02;;;;;;;4.63;2.40;;;28.60;44.30;;;;;;5048103;28;20486;-71
2022/05/10 10:43:33;;;;;;;6.53;3.83;;;28.40;44.20;;;;;;5048656;28;20457;-70
2022/05/10 10:46:08;;;;;;;4.83;2.73;;;28.20;44.40;;;;;;5048564;28;20457;-70
2022/05/10 10:48:44;;;;;;;6.53;3.00;;;28.00;43.80;;;;;;5048401;28;20537;-69
2022/05/10 10:51:12;;;;;;;4.87;2.20;;;28.30;42.70;;;;;;5048761;28;20473;-70
2022/05/10 10:53:41;;;;;;;4.87;2.20;;;28.10;42.80;;;;;;5048532;28;20446;-70
2022/05/10 10:56:28;;;;;;;4.13;2.20;;;28.00;43.20;;;;;;5048814;28;20450;-70
2022/05/10 10:59:10;;;;;;;5.40;2.43;;;27.70;42.10;;;;;;5048348;28;20465;-69
2022/05/10 11:02:02;;;;;;;4.70;2.57;;;27.60;43.30;;;;;;5048313;28;20477;-69
2022/05/10 11:04:52;;;;;;;5.40;2.57;;;27.70;43.10;;;;;;5048575;28;20916;-69
2022/05/10 11:07:29;;;;;;;6.13;2.37;;;28.10;42.90;;;;;;5048731;28;20465;-68
2022/05/10 11:10:04;;;;;;;5.23;2.93;;;28.00;41.30;;;;;;5048469;28;20449;-68
2022/05/10 11:12:46;;;;;;;4.40;2.40;;;27.80;41.20;;;;;;5048725;28;21025;-67
2022/05/10 11:15:29;;;;;;;6.70;2.67;;;27.80;40.20;;;;;;5048299;28;20545;-68
2022/05/10 11:18:12;;;;;;;4.30;2.10;;;28.00;40.20;;;;;;5048910;28;20888;-70
2022/05/10 11:20:49;;;;;;;4.77;2.30;;;28.20;39.30;;;;;;5048235;28;21113;-70
2022/05/10 11:23:28;;;;;;;5.10;2.70;;;28.30;39.90;;;;;;5048539;28;20469;-67
2022/05/10 11:26:06;;;;;;;4.90;2.50;;;28.50;39.10;;;;;;5048386;28;20473;-69
2022/05/10 11:29:02;;;;;;;4.40;2.07;;;28.50;39.80;;;;;;5048774;28;20454;-71
2022/05/10 11:31:38;;;;;;;5.47;2.50;;;28.80;41.70;;;;;;5048186;28;20531;-69
2022/05/10 11:34:45;;;;;;;7.60;2.20;;;29.30;40.80;;;;;;5052147;28;20456;-67
2022/05/10 11:37:17;;;;;;;7.00;3.20;;;29.30;36.70;;;;;;5051480;28;20962;-67
2022/05/10 11:40:16;;;;;;;5.67;2.57;;;29.40;38.60;;;;;;5051807;28;20450;-70
2022/05/10 11:43:03;;;;;;;7.30;2.80;;;29.80;39.80;;;;;;5041130;28;21028;-71
2022/05/10 11:46:01;;;;;;;4.90;2.50;;;30.00;39.70;;;;;;5051829;28;20573;-67
2022/05/10 11:48:55;;;;;;;5.30;2.50;;;30.30;40.90;;;;;;5052148;28;20457;-67
2022/05/10 11:51:46;;;;;;;6.20;2.50;;;30.50;39.50;;;;;;5051401;28;20474;-66
2022/05/10 11:54:42;;;;;;;6.33;2.67;;;30.70;39.80;;;;;;5051648;28;20438;-66
2022/05/10 11:57:15;;;;;;;5.27;2.70;;;30.90;39.40;;;;;;5051877;28;20488;-65
2022/05/10 11:59:44;;;;;;;5.07;2.30;;;31.20;39.30;;;;;;5051775;28;20454;-66
2022/05/10 12:02:42;;;;;;;5.70;2.30;;;31.10;39.10;;;;;;5051442;28;20532;-67
2022/05/10 12:05:22;;;;;;;4.70;2.47;;;31.30;39.60;;;;;;5051584;28;20489;-66
2022/05/10 12:07:51;;;;;;;7.17;2.70;;;31.20;38.40;;;;;;5051552;28;20457;-65
2022/05/10 12:10:37;;;;;;;8.30;2.40;;;30.90;38.20;;;;;;5051741;28;20458;-66
2022/05/10 12:13:12;;;;;;;8.93;2.67;;;31.10;37.80;;;;;;5051532;28;20461;-69
2022/05/10 12:21:57;;;;;;;6.80;2.40;;;31.50;36.40;;;;;;5051124;28;20457;-65
2022/05/10 12:24:34;;;;;;;5.63;2.80;;;31.50;37.50;;;;;;5051258;28;20486;-70
2022/05/10 12:27:36;;;;;;;5.60;2.80;;;31.70;37.30;;;;;;5051259;28;20458;-67
2022/05/10 12:30:34;;;;;;;6.20;4.47;;;31.60;37.50;;;;;;5051117;28;20957;-72
2022/05/10 12:33:32;;;;;;;6.00;3.90;;;31.80;37.70;;;;;;5051244;28;20450;-69
2022/05/10 12:36:09;;;;;;;4.73;2.53;;;32.00;36.00;;;;;;5051336;28;20895;-72
2022/05/10 12:38:48;;;;;;;5.93;2.73;;;32.00;36.40;;;;;;5051142;28;20463;-69
2022/05/10 12:41:52;;;;;;;7.90;4.87;;;32.20;34.90;;;;;;5050784;28;20497;-71
2022/05/10 12:45:01;;;;;;;6.47;3.57;;;32.30;35.60;;;;;;5049969;28;20489;-71
2022/05/10 12:47:59;;;;;;;6.83;2.83;;;32.30;36.10;;;;;;5034706;28;20959;-72
2022/05/10 12:50:46;;;;;;;10.00;2.57;;;32.30;35.10;;;;;;5043861;28;20474;-70
2022/05/10 12:53:25;;;;;;;5.53;2.97;;;32.30;34.90;;;;;;5050698;28;21005;-70
2022/05/10 12:55:56;;;;;;;5.33;2.60;;;32.40;36.00;;;;;;5050633;28;20516;-72
2022/05/10 12:58:30;;;;;;;4.53;2.20;;;32.30;35.10;;;;;;5051096;28;20465;-70
2022/05/10 13:01:01;;;;;;;5.73;2.20;;;32.40;34.80;;;;;;5050581;28;20473;-71
2022/05/10 13:03:34;;;;;;;6.80;2.60;;;32.60;34.30;;;;;;5050767;28;20469;-73
2022/05/10 13:06:18;;;;;;;4.70;2.63;;;32.80;34.80;;;;;;5050797;28;20486;-71
2022/05/10 13:09:05;;;;;;;5.80;2.60;;;32.90;36.20;;;;;;5050890;28;20883;-72
2022/05/10 13:11:40;;;;;;;5.63;2.93;;;33.00;37.60;;;;;;5050451;28;20978;-71
2022/05/10 13:14:10;;;;;;;6.60;2.20;;;33.10;36.50;;;;;;5050400;28;20464;-69
2022/05/10 13:16:37;;;;;;;4.07;2.17;;;33.00;36.60;;;;;;5050065;28;20492;-71
2022/05/10 13:19:07;;;;;;;4.90;2.60;;;32.70;36.70;;;;;;5049927;28;20450;-71
2022/05/10 13:21:35;;;;;;;5.20;2.80;;;32.80;36.60;;;;;;5049743;28;20996;-70
2022/05/10 13:24:11;;;;;;;9.13;2.73;;;32.50;37.30;;;;;;5049486;28;20537;-70
2022/05/10 13:26:54;;;;;;;6.13;2.70;;;32.10;37.40;;;;;;5050257;28;20500;-70
2022/05/10 13:29:40;;;;;;;11.17;3.70;;;31.50;39.20;;;;;;5050131;28;20477;-71
2022/05/10 13:32:12;;;;;;;9.13;2.30;;;30.50;40.60;;;;;;5049849;28;20505;-72
2022/05/10 13:34:51;;;;;;;7.57;3.13;;;29.90;41.40;;;;;;5049875;28;20452;-72
2022/05/10 13:37:27;;;;;;;10.03;2.70;;;29.20;42.40;;;;;;5049818;28;20457;-72